Flight Track Log - Related Links

Times and Time Zones

All times are in EST time to prevent confusion due to time zone crossing. See the AAL2497 flight status page for this flight to view local times or setup timezone preferences in your user account.

Time Position Orientation Groundspeed Altitude Reporting Facility
EST Latitude Longitude Course Direction KTS MPH feet Rate Location/Type
Tue 12:13:23 AM 32.8500 -97.0500 232° Southwest 167 192 4,200  Level Dallas / Fort Worth TRACON
Tue 12:14:01 AM 32.8269 -97.0856 276° West 238 274 5,800 2,962 Climbing FAA TRACON SMA TRACON (SMA)
Tue 12:14:42 AM 32.8325 -97.1461 280° West 271 312 8,100 3,185 Climbing FAA TRACON SMA TRACON (SMA)
Tue 12:15:22 AM 32.8406 -97.2014 279° West 276 318 10,100 3,225 Climbing FAA TRACON SMA TRACON (SMA)
Tue 12:16:02 AM 32.8494 -97.2647 280° West 281 323 12,400 2,430 Climbing FAA TRACON SMA TRACON (SMA)
Tue 12:16:41 AM 32.8581 -97.3256 280° West 307 353 13,300 1,875 Climbing FAA TRACON SMA TRACON (SMA)
Tue 12:17:22 AM 32.8689 -97.4017 279° West 342 394 14,900 1,926 Climbing FAA TRACON SMA TRACON (SMA)
Tue 12:18:02 AM 32.8800 -97.4828 280° West 363 418 15,900 1,950 Climbing FAA TRACON SMA TRACON (SMA)
Tue 12:18:42 AM 32.8922 -97.5692 280° West 383 441 17,500 2,127 Climbing FAA TRACON SMA TRACON (SMA)
Tue 12:19:21 AM 32.9033 -97.6472 279° West 391 450 18,700 1,950 Climbing FAA TRACON SMA TRACON (SMA)
Tue 12:20:02 AM 32.9153 -97.7364 279° West 397 457 20,100 2,148 Climbing FAA TRACON SMA TRACON (SMA)
Tue 12:20:42 AM 32.9278 -97.8278 279° West 404 465 21,600 3,675 Climbing FAA TRACON SMA TRACON (SMA)
Tue 12:21:22 AM 32.9383 -97.9044 279° West 377 434 25,000 3,949 Climbing FAA TRACON SMA TRACON (SMA)
Tue 12:22:01 AM 32.9486 -97.9822 279° West 344 396 26,800 2,100 Climbing FAA TRACON SMA TRACON (SMA)
Tue 12:22:42 AM 32.9581 -98.0519 279° West 347 399 27,800 1,302 Climbing FAA TRACON SMA TRACON (SMA)
Tue 12:23:47 AM 32.9731 -98.1711 278° West 356 410 29,100 1,344 Climbing Fort Worth Center
Tue 12:24:47 AM 32.9869 -98.2928 280° West 356 410 30,600 1,350 Climbing Fort Worth Center
Tue 12:25:47 AM 33.0047 -98.4142 279° West 374 430 31,800 1,250 Climbing Fort Worth Center
Tue 12:26:47 AM 33.0203 -98.5358 279° West 374 430 33,100 1,100 Climbing Fort Worth Center
Tue 12:27:47 AM 33.0358 -98.6597 279° West 374 430 34,000 450 Climbing Fort Worth Center
Tue 12:28:47 AM 33.0514 -98.7839 281° West 374 430 34,000  Level Fort Worth Center
Tue 12:29:47 AM 33.0708 -98.9083 278° West 374 430 34,000  Level Fort Worth Center
Tue 12:30:47 AM 33.0858 -99.0375 278° West 386 444 34,000  Level Fort Worth Center
Tue 12:31:47 AM 33.1008 -99.1667 279° West 391 450 34,000  Level Fort Worth Center
Tue 12:32:47 AM 33.1178 -99.2961 279° West 391 450 34,000  Level Fort Worth Center
Tue 12:33:47 AM 33.1344 -99.4253 277° West 391 450 34,000  Level Fort Worth Center
Tue 12:34:47 AM 33.1489 -99.5597 279° West 396 456 34,000  Level Fort Worth Center
Tue 12:35:47 AM 33.1656 -99.6892 278° West 396 456 34,000  Level Fort Worth Center
Tue 12:36:47 AM 33.1817 -99.8236 278° West 402 463 34,000  Level Fort Worth Center
Tue 12:37:47 AM 33.1978 -99.9556 278° West 407 468 34,000  Level Fort Worth Center
Tue 12:38:47 AM 33.2139 -100.0875 277° West 407 468 34,000  Level Fort Worth Center
Tue 12:39:47 AM 33.2278 -100.2197 277° West 407 468 34,000  Level Fort Worth Center
Tue 12:40:47 AM 33.2414 -100.3492 278° West 407 468 34,000  Level Fort Worth Center
Tue 12:41:47 AM 33.2569 -100.4814 277° West 407 468 34,000  Level Fort Worth Center
Tue 12:42:47 AM 33.2706 -100.6111 278° West 407 468 34,000  Level Fort Worth Center
Tue 12:43:47 AM 33.2858 -100.7433 277° West 407 468 34,000  Level Fort Worth Center
Tue 12:44:47 AM 33.2992 -100.8731 278° West 407 468 34,000  Level Fort Worth Center
Tue 12:45:47 AM 33.3158 -101.0153 278° West 407 468 34,000  Level Fort Worth Center
Tue 12:46:47 AM 33.3292 -101.1303 277° West 407 468 34,000  Level Fort Worth Center
Tue 12:47:47 AM 33.3436 -101.2750 277° West 407 468 34,000  Level Fort Worth Center
Tue 12:48:47 AM 33.3547 -101.3922 277° West 407 468 34,000  Level Fort Worth Center
Tue 12:49:47 AM 33.3689 -101.5347 276° West 407 468 34,000  Level Fort Worth Center
Tue 12:50:47 AM 33.3794 -101.6522 277° West 407 468 34,000  Level Fort Worth Center
Tue 12:51:47 AM 33.3933 -101.7947 277° West 402 463 34,000  Level Fort Worth Center
Tue 12:52:47 AM 33.4058 -101.9097 278° West 402 463 34,000  Level Fort Worth Center
Tue 12:53:47 AM 33.4217 -102.0525 277° West 402 463 34,000  Level Fort Worth Center
Tue 12:54:47 AM 33.4339 -102.1700 276° West 395 455 34,000  Level Fort Worth Center
Tue 12:55:47 AM 33.4469 -102.3150 278° West 395 455 34,000  Level Fort Worth Center
Tue 12:56:47 AM 33.4608 -102.4403 276° West 388 447 34,000  Level Fort Worth Center
Tue 12:57:47 AM 33.4725 -102.5678 276° West 388 447 34,000  Level Fort Worth Center
Tue 12:58:47 AM 33.4822 -102.6856 277° West 395 455 34,000  Level Fort Worth Center
Tue 12:59:47 AM 33.4969 -102.8283 277° West 395 455 34,000  Level Fort Worth Center
Tue 01:02:02 AM 33.5253 -103.1219 277° West 399 459 34,000  Level Albuquerque Center
Tue 01:03:02 AM 33.5381 -103.2533 277° West 404 465 34,000  Level Albuquerque Center
Tue 01:04:02 AM 33.5508 -103.3797 274° West 399 459 34,000  Level Albuquerque Center
Tue 01:05:02 AM 33.5594 -103.5164 275° West 404 465 34,000  Level Albuquerque Center
Tue 01:06:02 AM 33.5697 -103.6481 277° West 404 465 34,000  Level Albuquerque Center
Tue 01:07:02 AM 33.5822 -103.7794 274° West 409 471 34,000  Level Albuquerque Center
Tue 01:08:02 AM 33.5900 -103.9014 266° West 408 470 34,000  Level Albuquerque Center
Tue 01:09:02 AM 33.5814 -104.0461 266° West 403 464 34,000  Level Albuquerque Center
Tue 01:10:02 AM 33.5742 -104.1661 264° West 408 470 34,000  Level Albuquerque Center
Tue 01:11:02 AM 33.5614 -104.3111 264° West 408 470 34,000  Level Albuquerque Center
Tue 01:12:02 AM 33.5517 -104.4286 265° West 413 475 34,000  Level Albuquerque Center
Tue 01:13:02 AM 33.5408 -104.5783 264° West 407 468 34,000  Level Albuquerque Center
Tue 01:14:02 AM 33.5292 -104.7083 261° West 407 468 34,000  Level Albuquerque Center
Tue 01:15:02 AM 33.5131 -104.8358 264° West 402 463 34,000  Level Albuquerque Center
Tue 01:16:02 AM 33.5011 -104.9683 265° West 402 463 34,000  Level Albuquerque Center
Tue 01:17:02 AM 33.4911 -105.0956 264° West 397 457 34,000  Level Albuquerque Center
Tue 01:18:02 AM 33.4789 -105.2278 265° West 397 457 34,000  Level Albuquerque Center
Tue 01:19:02 AM 33.4686 -105.3550 261° West 389 448 34,000  Level Albuquerque Center
Tue 01:20:02 AM 33.4519 -105.4847 268° West 389 448 34,000  Level Albuquerque Center
Tue 01:21:02 AM 33.4475 -105.6092 263° West 389 448 34,000  Level Albuquerque Center
Tue 01:22:02 AM 33.4347 -105.7364 264° West 389 448 34,000 -50 Level Albuquerque Center
Tue 01:23:02 AM 33.4239 -105.8611 264° West 389 448 33,900  Descending Albuquerque Center
Tue 01:24:02 AM 33.4128 -105.9831 264° West 389 448 34,000 50 Climbing Albuquerque Center
Tue 01:25:02 AM 33.4017 -106.1078 263° West 384 442 34,000  Level Albuquerque Center
Tue 01:26:02 AM 33.3883 -106.2347 263° West 384 442 34,000  Level Albuquerque Center
Tue 01:27:02 AM 33.3747 -106.3592 264° West 384 442 34,000  Level Albuquerque Center
Tue 01:28:02 AM 33.3633 -106.4886 264° West 389 448 34,000  Level Albuquerque Center
Tue 01:29:02 AM 33.3517 -106.6156 263° West 389 448 34,000  Level Albuquerque Center
Tue 01:30:02 AM 33.3378 -106.7447 264° West 389 448 34,000  Level Albuquerque Center
Tue 01:31:02 AM 33.3258 -106.8717 263° West 389 448 34,000  Level Albuquerque Center
Tue 01:32:02 AM 33.3136 -106.9958 262° West 389 448 34,000  Level Albuquerque Center
Tue 01:33:02 AM 33.2994 -107.1178 263° West 395 455 34,000  Level Albuquerque Center
Tue 01:34:02 AM 33.2872 -107.2344 263° West 390 449 34,000  Level Albuquerque Center
Tue 01:35:02 AM 33.2747 -107.3636 273° West 390 449 34,000  Level Albuquerque Center
Tue 01:36:02 AM 33.2808 -107.4928 277° West 390 449 34,000  Level Albuquerque Center
Tue 01:37:02 AM 33.2953 -107.6269 279° West 395 455 34,000  Level Albuquerque Center
Tue 01:38:03 AM 33.3117 -107.7586 277° West 402 463 34,000 400 Level Albuquerque Center
Tue 01:39:02 AM 33.3256 -107.8903 278° West 407 468 34,800 1,160 Climbing Albuquerque Center
Tue 01:40:02 AM 33.3397 -108.0147 281° West 402 463 36,300 1,200 Climbing Albuquerque Center
Tue 01:41:02 AM 33.3617 -108.1492 277° West 392 451 37,200 850 Climbing Albuquerque Center
Tue 01:42:02 AM 33.3756 -108.2786 277° West 386 444 38,000 400 Climbing Albuquerque Center
Tue 01:43:02 AM 33.3889 -108.4056 280° West 386 444 38,000  Level Albuquerque Center
Tue 01:44:02 AM 33.4067 -108.5325 279° West 386 444 38,000  Level Albuquerque Center
Tue 01:45:02 AM 33.4242 -108.6622 279° West 391 450 38,000  Level Albuquerque Center
Tue 01:46:02 AM 33.4414 -108.7869 278° West 391 450 38,000  Level Albuquerque Center
Tue 01:47:02 AM 33.4547 -108.8967 277° West 385 443 38,000  Level Albuquerque Center
Tue 01:48:02 AM 33.4675 -109.0189 278° West 385 443 38,000  Level Albuquerque Center
Tue 01:49:02 AM 33.4825 -109.1411 278° West 385 443 38,000  Level Albuquerque Center
Tue 01:50:02 AM 33.4972 -109.2683 278° West 385 443 38,000  Level Albuquerque Center
Tue 01:51:02 AM 33.5119 -109.3958 279° West 391 450 38,000  Level Albuquerque Center
Tue 01:52:02 AM 33.5283 -109.5231 278° West 391 450 38,000  Level Albuquerque Center
Tue 01:53:02 AM 33.5428 -109.6531 279° West 391 450 38,000  Level Albuquerque Center
Tue 01:54:02 AM 33.5589 -109.7781 277° West 391 450 38,000  Level Albuquerque Center
Tue 01:55:02 AM 33.5711 -109.9031 279° West 391 450 38,000  Level Albuquerque Center
Tue 01:56:02 AM 33.5889 -110.0433 277° West 391 450 38,000  Level Albuquerque Center
Tue 01:57:02 AM 33.6025 -110.1708 278° West 391 450 38,000  Level Albuquerque Center
Tue 01:58:02 AM 33.6183 -110.2986 279° West 391 450 38,000  Level Albuquerque Center
Tue 01:59:02 AM 33.6342 -110.4136 279° West 391 450 38,000  Level Albuquerque Center
Tue 02:00:02 AM 33.6497 -110.5389 277° West 391 450 38,000  Level Albuquerque Center
Tue 02:01:02 AM 33.6628 -110.6767 278° West 391 450 38,000  Level Albuquerque Center
Tue 02:02:02 AM 33.6778 -110.8044 277° West 391 450 38,000  Level Albuquerque Center
Tue 02:03:02 AM 33.6908 -110.9325 277° West 391 450 38,000  Level Albuquerque Center
Tue 02:04:02 AM 33.7036 -111.0578 277° West 391 450 38,000  Level Albuquerque Center
Tue 02:05:02 AM 33.7164 -111.1856 277° West 391 450 38,000  Level Albuquerque Center
Tue 02:06:02 AM 33.7289 -111.3161 277° West 391 450 38,000  Level Albuquerque Center
Tue 02:07:02 AM 33.7414 -111.4414 277° West 391 450 38,000  Level Albuquerque Center
Tue 02:08:02 AM 33.7536 -111.5669 278° West 386 444 38,000  Level Albuquerque Center
Tue 02:09:02 AM 33.7681 -111.6875 277° West 381 438 38,000  Level Albuquerque Center
Tue 02:10:02 AM 33.7803 -111.8131 277° West 375 432 38,000  Level Albuquerque Center
Tue 02:11:02 AM 33.7922 -111.9361 277° West 375 432 38,000  Level Albuquerque Center
Tue 02:12:02 AM 33.8042 -112.0567 276° West 372 428 38,000  Level Albuquerque Center
Tue 02:13:02 AM 33.8144 -112.1672 278° West 372 428 38,000  Level Albuquerque Center
Tue 02:14:02 AM 33.8300 -112.3008 277° West 372 428 38,000  Level Albuquerque Center
Tue 02:15:02 AM 33.8419 -112.4139 276° West 372 428 38,000  Level Albuquerque Center
Tue 02:16:02 AM 33.8528 -112.5472 275° West 372 428 38,000  Level Albuquerque Center
Tue 02:17:02 AM 33.8606 -112.6603 277° West 372 428 38,000  Level Albuquerque Center
Tue 02:18:02 AM 33.8736 -112.7836 275° West 372 428 38,000  Level Albuquerque Center
Tue 02:19:02 AM 33.8825 -112.9067 276° West 372 428 38,000  Level Albuquerque Center
Tue 02:20:02 AM 33.8933 -113.0325 277° West 377 434 38,000  Level Albuquerque Center
Tue 02:21:02 AM 33.9064 -113.1558 276° West 377 434 38,000  Level Albuquerque Center
Tue 02:22:02 AM 33.9167 -113.2842 276° West 377 434 38,000  Level Albuquerque Center
Tue 02:23:02 AM 33.9286 -113.4228 275° West 377 434 38,000  Level Albuquerque Center
Tue 02:24:02 AM 33.9386 -113.5511 276° West 387 445 38,000  Level Albuquerque Center
Tue 02:25:47 AM 33.9589 -113.7797 277° West 404 465 38,000  Level Los Angeles Center
Tue 02:26:47 AM 33.9717 -113.9119 274° West 404 465 38,000  Level Los Angeles Center
Tue 02:27:47 AM 33.9803 -114.0469 269° West 404 465 38,000  Level Los Angeles Center
Tue 02:28:47 AM 33.9783 -114.1772 270° West 404 465 38,000  Level Los Angeles Center
Tue 02:29:47 AM 33.9783 -114.3075 271° West 399 459 38,000  Level Los Angeles Center
Tue 02:30:47 AM 33.9803 -114.4403 269° West 399 459 38,000  Level Los Angeles Center
Tue 02:31:47 AM 33.9778 -114.5731 270° West 404 465 38,000  Level Los Angeles Center
Tue 02:32:47 AM 33.9772 -114.7083 271° West 404 465 38,000 -350 Level Los Angeles Center
Tue 02:33:47 AM 33.9786 -114.8411 270° West 404 465 37,300 -800 Descending Los Angeles Center
Tue 02:34:47 AM 33.9781 -114.9789 269° West 404 465 36,400 -650 Descending Los Angeles Center
Tue 02:35:47 AM 33.9769 -115.1092 271° West 404 465 36,000 -200 Descending Los Angeles Center
Tue 02:36:47 AM 33.9781 -115.2369 269° West 392 451 36,000  Level Los Angeles Center
Tue 02:37:47 AM 33.9769 -115.3647 269° West 387 445 36,000  Level Los Angeles Center
Tue 02:38:47 AM 33.9756 -115.4950 269° West 382 440 36,000  Level Los Angeles Center
Tue 02:39:47 AM 33.9739 -115.6253 269° West 382 440 36,000  Level Los Angeles Center
Tue 02:40:47 AM 33.9725 -115.7556 270° West 382 440 36,000  Level Los Angeles Center
Tue 02:41:47 AM 33.9728 -115.8883 269° West 388 447 36,000  Level Los Angeles Center
Tue 02:42:47 AM 33.9708 -116.0211 270° West 393 452 36,000 -200 Level Los Angeles Center
Tue 02:43:47 AM 33.9708 -116.1539 269° West 393 452 35,600 -950 Descending Los Angeles Center
Tue 02:44:47 AM 33.9686 -116.2814 269° West 393 452 34,100 -2,000 Descending Los Angeles Center
Tue 02:45:47 AM 33.9664 -116.4142 270° West 393 452 31,600 -2,450 Descending Los Angeles Center
Tue 02:46:47 AM 33.9658 -116.5369 269° West 388 447 29,200 -2,350 Descending Los Angeles Center
Tue 02:47:47 AM 33.9633 -116.6547 270° West 376 433 26,900 -2,350 Descending Los Angeles Center
Tue 02:48:47 AM 33.9628 -116.7700 268° West 357 411 24,500 -2,400 Descending Los Angeles Center
Tue 02:49:47 AM 33.9600 -116.8775 268° West 337 388 22,100 -2,350 Descending Los Angeles Center
Tue 02:50:47 AM 33.9572 -116.9778 263° West 326 375 19,800 -2,317 Descending Los Angeles Center
Tue 02:51:28 AM 33.9500 -117.0500 270° West 295 339 18,200 -1,768 Descending Southern California TRACON
Tue 02:52:22 AM 33.9500 -117.1333 280° West 290 334 17,000 -1,381 Descending Southern California TRACON
Tue 02:53:34 AM 33.9667 -117.2500 270° West 309 356 15,300 -1,476 Descending Southern California TRACON
Tue 02:54:28 AM 33.9667 -117.3500 281° West 304 350 13,900 -1,461 Descending Southern California TRACON
Tue 02:55:29 AM 33.9833 -117.4500 270° West 299 344 12,500 -1,091 Descending Southern California TRACON
Tue 02:56:29 AM 33.9833 -117.5333 281° West 287 330 11,700 -1,100 Descending Southern California TRACON
Tue 02:57:29 AM 34.0000 -117.6333 270° West 285 328 10,300 -1,000 Descending Southern California TRACON
Tue 02:58:23 AM 34.0000 -117.7167 270° West 270 311 9,800 -842 Descending Southern California TRACON
Tue 02:59:23 AM 34.0000 -117.8000 256° West 251 289 8,700 -1,300 Descending Southern California TRACON
Tue 03:00:23 AM 33.9833 -117.8833 270° West 231 266 7,200 -1,211 Descending Southern California TRACON
Tue 03:01:17 AM 33.9833 -117.9500 253° West 220 253 6,400 -850 Descending Southern California TRACON
Tue 03:02:23 AM 33.9667 -118.0167 270° West 213 245 5,500 -783 Descending Southern California TRACON
Tue 03:03:12 AM 33.9667 -118.0833 270° West 215 247 4,900 -771 Descending Southern California TRACON
Tue 03:04:12 AM 33.9667 -118.1500 270° West 207 238 4,100 -800 Descending Southern California TRACON

Login

Don't have an account? Register now (free) for customized features, flight alerts, and more!